This is the latest recevied weather packets stored in our database for station/object OM3WYM-13. If no packets are shown the sender has not sent any weather packets the latest 10 day(s).
| Time | Temp. | Humidity | Pressure | Rain* | Wind** | Luminosity | Snow |
|---|---|---|---|---|---|---|---|
| 1777558208 | 17.22° C | 21% | 1025 hPa | - | - | - | - |
| 1777557608 | 17.78° C | 20% | 1024.9 hPa | - | - | - | - |
| 1777557008 | 18.33° C | 20% | 1024.9 hPa | - | - | - | - |
| 1777556408 | 17.22° C | 21% | 1025.2 hPa | - | - | - | - |
| 1777555808 | 17.78° C | 21% | 1025.1 hPa | - | - | - | - |
| 1777555208 | 16.67° C | 22% | 1025.4 hPa | - | - | - | - |
| 1777554608 | 16.11° C | 22% | 1025.6 hPa | - | - | - | - |
| 1777554008 | 15.56° C | 23% | 1025.7 hPa | - | - | - | - |
| 1777553408 | 15.56° C | 23% | 1025.9 hPa | - | - | - | - |
| 1777552808 | 15.56° C | 24% | 1026.1 hPa | - | - | - | - |
| 1777552208 | 15° C | 24% | 1026.1 hPa | - | - | - | - |
| 1777551608 | 15° C | 23% | 1026.3 hPa | - | - | - | - |
| 1777551008 | 14.44° C | 25% | 1026.6 hPa | - | - | - | - |
| 1777550408 | 14.44° C | 25% | 1026.7 hPa | - | - | - | - |
| 1777549808 | 13.89° C | 26% | 1026.8 hPa | - | - | - | - |
| 1777549208 | 13.33° C | 27% | 1027 hPa | - | - | - | - |
| 1777548608 | 12.22° C | 27% | 1027.2 hPa | - | - | - | - |
| 1777548008 | 11.67° C | 27% | 1027.3 hPa | - | - | - | - |
| 1777547408 | 12.22° C | 27% | 1027.4 hPa | - | - | - | - |
| 1777546808 | 11.67° C | 27% | 1027.5 hPa | - | - | - | - |
| 1777546208 | 11.11° C | 29% | 1027.6 hPa | - | - | - | - |
| 1777545608 | 10° C | 30% | 1027.9 hPa | - | - | - | - |
| 1777545008 | 10.56° C | 30% | 1027.9 hPa | - | - | - | - |
| 1777544408 | 10° C | 31% | 1028 hPa | - | - | - | - |
| 1777543808 | 9.44° C | 32% | 1028.2 hPa | - | - | - | - |
* Rain since midnight (hover to see other rain measurements)
** Current wind speed in m/s (hover to see current wind gust speed)